createdAt,value
2018-11-23T00:02:02.478Z,21.17
2018-11-23T00:06:10.779Z,21.00
2018-11-23T00:10:20.337Z,18.63
2018-11-23T00:14:28.623Z,18.10
2018-11-23T00:18:36.882Z,20.67
2018-11-23T00:22:45.181Z,19.90
2018-11-23T00:26:53.442Z,18.83
2018-11-23T00:31:01.720Z,19.03
2018-11-23T00:35:12.054Z,18.60
2018-11-23T00:39:20.486Z,18.90
2018-11-23T00:43:28.531Z,19.63
2018-11-23T00:47:36.919Z,19.90
2018-11-23T00:51:45.231Z,17.93
2018-11-23T00:55:53.545Z,16.53
2018-11-23T01:00:01.912Z,17.83
2018-11-23T01:04:10.270Z,18.37
2018-11-23T01:08:18.571Z,18.07
2018-11-23T01:12:26.857Z,17.20
2018-11-23T01:16:35.153Z,16.90
2018-11-23T01:20:43.483Z,18.20
2018-11-23T01:24:51.765Z,20.53
2018-11-23T01:29:00.032Z,18.97
2018-11-23T01:33:08.272Z,18.37
2018-11-23T01:37:16.526Z,18.07
2018-11-23T01:41:24.889Z,19.30
2018-11-23T01:45:33.267Z,18.50
2018-11-23T01:49:41.658Z,17.97
2018-11-23T01:53:50.012Z,18.30
2018-11-23T01:57:58.289Z,18.93
2018-11-23T02:02:06.636Z,17.07
2018-11-23T02:06:15.023Z,19.23
2018-11-23T02:10:23.313Z,18.50
2018-11-23T02:14:31.467Z,17.73
2018-11-23T02:18:39.721Z,20.73
2018-11-23T02:22:48.003Z,18.97
2018-11-23T02:26:56.283Z,17.63
2018-11-23T02:31:07.664Z,20.30
2018-11-23T02:35:16.433Z,21.67
2018-11-23T02:39:24.734Z,18.57
2018-11-23T02:43:33.131Z,19.10
2018-11-23T02:47:42.216Z,20.60
2018-11-23T02:51:50.593Z,20.80
2018-11-23T02:55:58.881Z,19.80
2018-11-23T03:00:11.448Z,18.50
2018-11-23T03:04:19.742Z,20.40
2018-11-23T03:08:28.014Z,19.67
2018-11-23T03:12:36.300Z,19.00
2018-11-23T03:16:44.592Z,18.23
2018-11-23T03:20:52.603Z,19.23
2018-11-23T03:25:00.869Z,20.87
2018-11-23T03:29:08.890Z,18.80
2018-11-23T03:33:17.204Z,20.33
2018-11-23T03:37:25.505Z,20.77
2018-11-23T03:41:33.821Z,20.77
2018-11-23T03:45:42.057Z,20.87
2018-11-23T03:49:50.350Z,20.73
2018-11-23T03:53:58.667Z,22.90
2018-11-23T03:58:07.066Z,21.57
2018-11-23T04:02:15.460Z,20.07
2018-11-23T04:06:23.740Z,20.73
2018-11-23T04:10:32.022Z,19.83
2018-11-23T04:14:40.301Z,19.60
2018-11-23T04:18:48.610Z,19.03
2018-11-23T04:22:56.878Z,21.23
2018-11-23T04:27:05.191Z,17.47
2018-11-23T04:31:13.513Z,20.10
2018-11-23T04:35:21.793Z,18.60
2018-11-23T04:39:30.147Z,18.10
2018-11-23T04:43:38.400Z,17.00
2018-11-23T04:47:46.714Z,17.65
2018-11-23T04:51:55.086Z,18.67
2018-11-23T04:56:03.460Z,18.30
2018-11-23T05:00:14.126Z,18.83
2018-11-23T05:04:22.429Z,19.73
2018-11-23T05:08:30.763Z,18.70
2018-11-23T05:12:39.177Z,19.43
2018-11-23T05:16:47.486Z,18.80
2018-11-23T05:20:55.764Z,20.57
2018-11-23T05:25:04.793Z,18.42
2018-11-23T05:29:13.061Z,18.00
2018-11-23T05:33:21.463Z,19.50
2018-11-23T05:37:29.778Z,19.10
2018-11-23T05:41:38.032Z,19.27
2018-11-23T05:45:46.310Z,19.30
2018-11-23T05:49:54.563Z,18.97
2018-11-23T05:54:02.886Z,20.00
2018-11-23T05:58:11.213Z,19.53
2018-11-23T06:02:19.489Z,20.43
2018-11-23T06:06:27.740Z,22.20
2018-11-23T06:10:36.004Z,20.27
2018-11-23T06:14:44.338Z,19.27
2018-11-23T06:18:52.591Z,22.33
2018-11-23T06:23:00.902Z,19.60
2018-11-23T06:27:09.143Z,20.60
2018-11-23T06:31:17.481Z,19.90
2018-11-23T06:35:25.847Z,19.33
2018-11-23T06:39:34.141Z,19.70
2018-11-23T06:43:42.407Z,19.60
2018-11-23T06:47:50.686Z,18.60
2018-11-23T06:51:58.952Z,19.67
2018-11-23T06:56:07.269Z,19.47
2018-11-23T07:00:16.458Z,19.30
2018-11-23T07:04:24.738Z,20.37
2018-11-23T07:08:33.036Z,20.30
2018-11-23T07:12:41.357Z,19.57
2018-11-23T07:16:49.651Z,21.10
2018-11-23T07:20:57.971Z,20.30
2018-11-23T07:25:07.043Z,19.33
2018-11-23T07:29:15.399Z,20.57
2018-11-23T07:33:23.726Z,19.63
2018-11-23T07:37:32.111Z,20.83
2018-11-23T07:41:51.856Z,19.90
2018-11-23T07:46:00.167Z,19.53
2018-11-23T07:50:09.313Z,19.73
2018-11-23T07:54:17.645Z,21.43
2018-11-23T07:58:25.912Z,24.60
2018-11-23T08:02:34.182Z,26.43
2018-11-23T08:06:42.444Z,24.43
2018-11-23T08:10:50.051Z,23.93
2018-11-23T08:14:58.367Z,24.07
2018-11-23T08:19:06.755Z,22.67
2018-11-23T08:23:15.035Z,23.83
2018-11-23T08:27:23.367Z,27.27
2018-11-23T08:31:31.671Z,26.07
2018-11-23T08:35:40.054Z,24.87
2018-11-23T08:39:48.362Z,24.30
2018-11-23T08:43:56.683Z,26.07
2018-11-23T08:48:04.971Z,24.40
2018-11-23T08:52:13.271Z,26.47
2018-11-23T08:56:21.648Z,23.00
2018-11-23T09:00:29.997Z,24.17
2018-11-23T09:04:38.266Z,25.33
2018-11-23T09:08:46.586Z,27.93
2018-11-23T09:13:02.953Z,27.60
2018-11-23T09:17:11.240Z,22.60
2018-11-23T09:21:19.530Z,27.27
2018-11-23T09:25:27.805Z,27.57
2018-11-23T09:29:36.102Z,26.07
2018-11-23T09:33:44.408Z,23.40
2018-11-23T09:37:53.010Z,25.50
2018-11-23T09:42:01.336Z,25.30
2018-11-23T09:46:09.653Z,24.27
2018-11-23T09:50:19.253Z,22.23
2018-11-23T09:54:27.615Z,22.10
2018-11-23T09:58:39.372Z,22.85
2018-11-23T10:02:44.993Z,20.63
2018-11-23T10:06:53.284Z,21.73
2018-11-23T10:11:01.918Z,23.80
2018-11-23T10:15:11.787Z,25.73
2018-11-23T10:19:24.965Z,25.07
2018-11-23T10:23:33.294Z,25.13
2018-11-23T10:27:42.346Z,26.83
2018-11-23T10:31:50.644Z,24.80
2018-11-23T10:35:59.154Z,24.87
2018-11-23T10:40:10.064Z,25.60
2018-11-23T10:44:18.354Z,25.63
2018-11-23T10:48:26.653Z,23.30
2018-11-23T10:52:35.001Z,23.00
2018-11-23T10:56:43.344Z,23.10
2018-11-23T11:00:57.210Z,20.00
2018-11-23T11:05:11.332Z,21.03
2018-11-23T11:09:19.626Z,23.23
2018-11-23T11:13:27.942Z,21.35
2018-11-23T11:17:36.276Z,21.47
2018-11-23T11:21:44.617Z,22.60
2018-11-23T11:25:53.054Z,22.37
2018-11-23T11:30:01.371Z,24.00
2018-11-23T11:34:09.696Z,23.40
2018-11-23T11:38:18.095Z,21.60
2018-11-23T11:42:26.397Z,23.47
2018-11-23T11:46:34.699Z,24.57
2018-11-23T11:50:43.049Z,25.00
2018-11-23T11:54:51.358Z,26.93
2018-11-23T11:58:59.677Z,24.93
2018-11-23T12:03:07.974Z,24.10
2018-11-23T12:07:16.298Z,24.10
2018-11-23T12:11:24.602Z,24.40
2018-11-23T12:15:32.913Z,23.60
2018-11-23T12:19:41.163Z,23.90
2018-11-23T12:23:49.469Z,21.90
2018-11-23T12:27:58.189Z,24.67
2018-11-23T12:32:06.474Z,24.03
2018-11-23T12:36:14.778Z,27.00
2018-11-23T12:40:23.094Z,24.40
2018-11-23T12:44:31.599Z,25.50
2018-11-23T12:48:39.922Z,24.47
2018-11-23T12:52:48.269Z,24.30
2018-11-23T12:56:56.745Z,24.33
2018-11-23T13:01:05.248Z,22.40
2018-11-23T13:05:13.625Z,23.77
2018-11-23T13:09:21.896Z,24.23
2018-11-23T13:13:30.226Z,21.90
2018-11-23T13:17:38.514Z,24.43
2018-11-23T13:21:46.869Z,23.97
2018-11-23T13:25:55.203Z,25.60
2018-11-23T13:30:03.601Z,23.40
2018-11-23T13:34:11.989Z,25.60
2018-11-23T13:38:20.321Z,24.90
2018-11-23T13:42:28.670Z,23.30
2018-11-23T13:46:36.962Z,24.97
2018-11-23T13:50:45.347Z,23.10
2018-11-23T13:54:53.713Z,22.10
2018-11-23T13:59:02.026Z,31.40
2018-11-23T14:03:10.429Z,28.53
2018-11-23T14:07:18.885Z,31.43
2018-11-23T14:11:27.255Z,29.07
2018-11-23T14:15:35.606Z,30.33
2018-11-23T14:19:43.951Z,30.57
2018-11-23T14:23:52.303Z,28.97
2018-11-23T14:28:00.739Z,30.00
2018-11-23T14:32:09.159Z,28.00
2018-11-23T14:36:17.566Z,28.10
2018-11-23T14:40:25.908Z,35.83
2018-11-23T14:44:34.134Z,26.77
2018-11-23T14:48:42.443Z,25.83
2018-11-23T14:52:51.787Z,33.48
2018-11-23T14:57:00.063Z,26.03
2018-11-23T15:01:08.345Z,26.40
2018-11-23T15:05:17.319Z,26.30
2018-11-23T15:09:25.727Z,25.33
2018-11-23T15:13:33.993Z,25.03
2018-11-23T15:17:43.038Z,24.60
2018-11-23T15:21:51.344Z,24.23
2018-11-23T15:25:59.627Z,25.70
2018-11-23T15:30:17.321Z,24.77
2018-11-23T15:34:25.586Z,25.00
2018-11-23T15:38:33.980Z,23.77
2018-11-23T15:42:42.271Z,22.53
2018-11-23T15:46:50.594Z,24.60
2018-11-23T15:51:03.191Z,23.80
2018-11-23T15:55:14.455Z,24.27
2018-11-23T15:59:22.729Z,22.23
2018-11-23T16:03:31.011Z,24.90
2018-11-23T16:07:39.256Z,33.83
2018-11-23T16:11:47.595Z,30.10
2018-11-23T16:15:55.889Z,29.33
2018-11-23T16:20:04.745Z,33.43
2018-11-23T16:24:13.018Z,30.37
2018-11-23T16:28:21.322Z,29.27
2018-11-23T16:32:29.597Z,26.97
2018-11-23T16:36:37.882Z,27.87
2018-11-23T16:40:48.573Z,28.53
2018-11-23T16:44:56.850Z,27.23
2018-11-23T16:49:05.113Z,24.30
2018-11-23T16:53:13.410Z,27.20
2018-11-23T16:57:21.675Z,25.57
2018-11-23T17:01:30.020Z,25.00
2018-11-23T17:05:40.813Z,26.87
2018-11-23T17:09:49.064Z,27.20
2018-11-23T17:13:57.366Z,30.60
2018-11-23T17:18:06.229Z,29.90
2018-11-23T17:22:14.515Z,27.73
2018-11-23T17:26:22.811Z,28.60
2018-11-23T17:30:32.077Z,25.37
2018-11-23T17:34:40.366Z,27.87
2018-11-23T17:38:48.698Z,28.03
2018-11-23T17:42:58.441Z,27.53
2018-11-23T17:47:05.655Z,27.10
2018-11-23T17:51:13.987Z,27.70
2018-11-23T17:55:22.236Z,28.27
2018-11-23T17:59:37.832Z,31.23
2018-11-23T18:03:46.118Z,34.13
2018-11-23T18:07:54.503Z,34.60
2018-11-23T18:12:02.910Z,31.80
2018-11-23T18:16:11.326Z,35.23
2018-11-23T18:20:20.787Z,33.63
2018-11-23T18:24:29.527Z,34.45
2018-11-23T18:28:37.908Z,32.60
2018-11-23T18:32:46.218Z,29.40
2018-11-23T18:36:54.495Z,30.60
2018-11-23T18:41:02.832Z,24.57
2018-11-23T18:45:13.035Z,28.00
2018-11-23T18:49:21.348Z,28.10
2018-11-23T18:53:29.631Z,27.70
2018-11-23T18:57:37.924Z,28.30
2018-11-23T19:01:46.184Z,29.23
2018-11-23T19:05:54.489Z,29.87
2018-11-23T19:10:02.815Z,28.20
2018-11-23T19:14:11.075Z,27.07
2018-11-23T19:18:19.186Z,28.40
2018-11-23T19:22:27.478Z,28.37
2018-11-23T19:26:35.766Z,26.10
2018-11-23T19:30:44.071Z,26.63
2018-11-23T19:34:52.371Z,26.30
2018-11-23T19:39:00.690Z,25.03
2018-11-23T19:43:09.006Z,24.60
2018-11-23T19:47:17.304Z,23.43
2018-11-23T19:51:25.622Z,24.73
2018-11-23T19:55:33.850Z,24.57
2018-11-23T19:59:42.106Z,23.60
2018-11-23T20:03:50.383Z,24.87
2018-11-23T20:07:58.670Z,25.77
2018-11-23T20:12:07.023Z,23.27
2018-11-23T20:16:15.339Z,24.23
2018-11-23T20:20:23.618Z,23.80
2018-11-23T20:24:31.918Z,23.03
2018-11-23T20:28:40.158Z,22.52
2018-11-23T20:32:48.438Z,24.90
2018-11-23T20:36:56.726Z,24.10
2018-11-23T20:41:05.092Z,26.60
2018-11-23T20:45:13.723Z,25.17
2018-11-23T20:49:21.726Z,23.77
2018-11-23T20:53:30.095Z,22.90
2018-11-23T20:57:38.414Z,24.70
2018-11-23T21:01:46.690Z,24.23
2018-11-23T21:05:55.015Z,22.87
2018-11-23T21:10:03.339Z,25.17
2018-11-23T21:14:11.618Z,31.23
2018-11-23T21:18:19.915Z,26.53
2018-11-23T21:22:28.381Z,24.40
2018-11-23T21:26:36.711Z,23.80
2018-11-23T21:30:45.079Z,25.43
2018-11-23T21:34:54.389Z,26.17
2018-11-23T21:39:02.645Z,25.40
2018-11-23T21:43:10.883Z,24.33
2018-11-23T21:47:19.150Z,23.93
2018-11-23T21:51:27.486Z,24.30
2018-11-23T21:55:35.815Z,24.00
2018-11-23T21:59:44.126Z,27.30
2018-11-23T22:03:52.397Z,28.97
2018-11-23T22:08:00.674Z,28.40
2018-11-23T22:12:09.054Z,27.83
2018-11-23T22:16:17.391Z,25.45
2018-11-23T22:20:26.114Z,25.50
2018-11-23T22:24:34.383Z,25.77
2018-11-23T22:28:42.450Z,25.20
2018-11-23T22:32:50.716Z,24.73
2018-11-23T22:36:59.007Z,25.90
2018-11-23T22:41:07.082Z,25.27
2018-11-23T22:45:16.103Z,28.27
2018-11-23T22:49:24.361Z,27.93
2018-11-23T22:53:32.745Z,25.23
2018-11-23T22:57:41.005Z,25.53
2018-11-23T23:01:49.795Z,27.00
2018-11-23T23:05:58.103Z,24.13
2018-11-23T23:10:07.210Z,24.23
2018-11-23T23:14:15.510Z,24.60
2018-11-23T23:18:23.806Z,24.70
2018-11-23T23:22:32.296Z,24.63
2018-11-23T23:26:40.579Z,25.30
2018-11-23T23:30:48.875Z,25.30
2018-11-23T23:34:57.162Z,23.00
2018-11-23T23:39:07.757Z,26.70
2018-11-23T23:43:16.036Z,23.97
2018-11-23T23:47:24.279Z,24.00
2018-11-23T23:51:32.543Z,22.27
2018-11-23T23:55:40.858Z,24.43
2018-11-23T23:59:49.121Z,26.83
